createdAt,value
2022-09-28T00:01:24.179Z,86.86
2022-09-28T00:03:52.281Z,86.16
2022-09-28T00:06:20.516Z,85.97
2022-09-28T00:08:47.220Z,85.62
2022-09-28T00:11:15.437Z,85.70
2022-09-28T00:13:42.931Z,85.92
2022-09-28T00:16:14.145Z,85.87
2022-09-28T00:18:41.194Z,85.26
2022-09-28T00:21:12.949Z,84.89
2022-09-28T00:23:59.804Z,84.51
2022-09-28T00:26:27.615Z,84.56
2022-09-28T00:28:55.015Z,84.90
2022-09-28T00:31:22.195Z,85.25
2022-09-28T00:33:57.690Z,85.24
2022-09-28T00:36:24.757Z,85.17
2022-09-28T00:38:52.325Z,85.42
2022-09-28T00:41:18.985Z,85.28
2022-09-28T00:43:45.637Z,84.96
2022-09-28T00:49:59.125Z,84.79
2022-09-28T00:52:30.275Z,84.29
2022-09-28T00:54:57.496Z,85.01
2022-09-28T00:57:24.116Z,84.83
2022-09-28T00:59:50.835Z,84.71
2022-09-28T01:02:17.532Z,85.08
2022-09-28T01:04:44.138Z,85.29
2022-09-28T01:07:10.724Z,85.79
2022-09-28T01:09:38.782Z,85.81
2022-09-28T01:12:05.758Z,86.35
2022-09-28T01:14:32.327Z,86.51
2022-09-28T01:17:11.798Z,86.52
2022-09-28T01:20:34.316Z,87.06
2022-09-28T01:23:24.322Z,87.11
2022-09-28T01:26:12.604Z,87.49
2022-09-28T01:28:39.274Z,87.46
2022-09-28T01:31:09.782Z,87.35
2022-09-28T01:34:10.355Z,87.77
2022-09-28T01:36:46.486Z,87.86
2022-09-28T01:39:34.752Z,87.63
2022-09-28T01:42:08.285Z,87.20
2022-09-28T01:44:47.578Z,87.26
2022-09-28T01:47:15.280Z,87.60
2022-09-28T01:49:46.288Z,86.75
2022-09-28T01:52:20.935Z,87.29
2022-09-28T01:54:53.648Z,86.89
2022-09-28T01:57:24.829Z,87.06
2022-09-28T02:00:21.271Z,87.00
2022-09-28T02:03:17.564Z,86.75
2022-09-28T02:05:48.727Z,86.46
2022-09-28T02:08:28.525Z,86.46
2022-09-28T02:11:00.739Z,86.37
2022-09-28T02:13:30.327Z,86.12
2022-09-28T02:16:09.036Z,86.35
2022-09-28T02:18:35.708Z,85.86
2022-09-28T02:21:15.349Z,86.11
2022-09-28T02:23:51.325Z,85.52
2022-09-28T02:26:17.904Z,84.77
2022-09-28T02:28:44.469Z,84.51
2022-09-28T02:31:11.075Z,84.98
2022-09-28T02:33:38.835Z,84.50
2022-09-28T02:36:05.542Z,84.60
2022-09-28T02:38:32.242Z,84.83
2022-09-28T02:41:17.022Z,84.92
2022-09-28T02:43:43.501Z,84.18
2022-09-28T02:46:22.291Z,84.82
2022-09-28T02:49:21.002Z,83.91
2022-09-28T02:51:54.351Z,84.25
2022-09-28T02:54:28.428Z,84.60
2022-09-28T02:57:33.068Z,84.12
2022-09-28T03:00:08.053Z,84.54
2022-09-28T03:02:34.476Z,84.44
2022-09-28T03:05:14.680Z,84.33
2022-09-28T03:08:00.253Z,85.06
2022-09-28T03:10:41.026Z,84.61
2022-09-28T03:13:07.662Z,84.52
2022-09-28T03:15:35.558Z,84.25
2022-09-28T03:18:02.266Z,84.27
2022-09-28T03:20:29.647Z,83.96
2022-09-28T03:23:22.820Z,83.93
2022-09-28T03:25:42.887Z,83.71
2022-09-28T03:28:09.461Z,82.74
2022-09-28T03:30:36.040Z,82.57
2022-09-28T03:33:03.272Z,83.05
2022-09-28T03:35:29.984Z,82.62
2022-09-28T03:37:56.828Z,82.35
2022-09-28T03:40:23.581Z,82.57
2022-09-28T03:42:50.252Z,82.60
2022-09-28T03:45:16.918Z,82.14
2022-09-28T03:47:47.083Z,82.57
2022-09-28T03:50:13.860Z,81.85
2022-09-28T03:52:40.469Z,82.12
2022-09-28T03:55:07.428Z,81.97
2022-09-28T03:57:34.023Z,81.89
2022-09-28T04:00:00.940Z,82.33
2022-09-28T04:02:27.595Z,81.31
2022-09-28T04:04:54.315Z,81.66
2022-09-28T04:07:20.965Z,81.95
2022-09-28T04:09:47.591Z,82.63
2022-09-28T04:12:14.186Z,82.44
2022-09-28T04:14:40.782Z,81.93
2022-09-28T04:17:07.417Z,82.78
2022-09-28T04:19:34.059Z,82.43
2022-09-28T04:22:01.999Z,83.01
2022-09-28T04:24:28.735Z,83.01
2022-09-28T04:27:18.088Z,82.55
2022-09-28T04:29:44.804Z,82.67
2022-09-28T04:32:12.062Z,82.79
2022-09-28T04:34:43.173Z,82.78
2022-09-28T04:37:10.662Z,83.00
2022-09-28T04:39:37.302Z,82.58
2022-09-28T04:42:03.927Z,83.14
2022-09-28T04:44:30.600Z,83.22
2022-09-28T04:46:59.655Z,83.16
2022-09-28T04:49:28.301Z,82.86
2022-09-28T04:51:54.956Z,82.81
2022-09-28T04:54:21.538Z,82.82
2022-09-28T04:56:48.133Z,82.76
2022-09-28T04:59:14.840Z,82.90
2022-09-28T05:01:41.716Z,82.54
2022-09-28T05:04:08.269Z,82.96
2022-09-28T05:06:34.906Z,83.21
2022-09-28T05:09:01.603Z,83.12
2022-09-28T05:11:28.227Z,83.02
2022-09-28T05:13:55.167Z,82.47
2022-09-28T05:16:21.824Z,82.45
2022-09-28T05:18:48.504Z,82.33
2022-09-28T05:21:15.589Z,81.95
2022-09-28T05:23:46.221Z,82.01
2022-09-28T05:26:12.874Z,82.13
2022-09-28T05:28:39.557Z,82.07
2022-09-28T05:31:06.278Z,81.80
2022-09-28T05:33:33.098Z,82.00
2022-09-28T05:36:01.492Z,81.36
2022-09-28T05:38:28.721Z,81.24
2022-09-28T05:40:55.395Z,81.46
2022-09-28T05:43:22.133Z,81.54
2022-09-28T05:45:53.026Z,82.10
2022-09-28T05:48:21.818Z,81.93
2022-09-28T05:50:52.516Z,81.68
2022-09-28T05:53:19.260Z,82.16
2022-09-28T05:55:45.887Z,81.58
2022-09-28T05:58:12.442Z,82.07
2022-09-28T06:00:38.996Z,82.44
2022-09-28T06:03:09.106Z,82.14
2022-09-28T06:05:36.353Z,81.89
2022-09-28T06:08:04.401Z,81.68
2022-09-28T06:10:31.257Z,81.89
2022-09-28T06:12:58.507Z,81.52
2022-09-28T06:15:30.318Z,81.08
2022-09-28T06:18:06.935Z,81.41
2022-09-28T06:20:35.723Z,80.18
2022-09-28T06:23:02.435Z,80.61
2022-09-28T06:25:29.100Z,80.38
2022-09-28T06:28:12.227Z,80.11
2022-09-28T06:30:39.249Z,78.94
2022-09-28T06:33:06.922Z,78.77
2022-09-28T06:35:33.840Z,79.03
2022-09-28T06:38:00.688Z,78.36
2022-09-28T06:40:27.393Z,78.88
2022-09-28T06:43:01.651Z,78.71
2022-09-28T06:45:29.099Z,79.16
2022-09-28T06:47:56.766Z,79.65
2022-09-28T06:50:27.034Z,79.33
2022-09-28T06:52:54.176Z,79.39
2022-09-28T06:55:21.439Z,78.60
2022-09-28T06:57:48.211Z,77.76
2022-09-28T07:00:16.544Z,77.36
2022-09-28T07:02:43.189Z,76.73
2022-09-28T07:05:12.445Z,77.11
2022-09-28T07:07:40.424Z,76.18
2022-09-28T07:10:08.423Z,74.75
2022-09-28T07:12:35.894Z,75.35
2022-09-28T07:15:02.564Z,75.21
2022-09-28T07:17:29.367Z,74.20
2022-09-28T07:20:00.256Z,75.04
2022-09-28T07:22:40.608Z,74.47
2022-09-28T07:25:09.966Z,73.11
2022-09-28T07:27:39.595Z,73.73
2022-09-28T07:30:06.858Z,71.94
2022-09-28T07:32:37.478Z,72.12
2022-09-28T07:35:09.270Z,72.45
2022-09-28T07:37:36.121Z,72.91
2022-09-28T07:40:25.651Z,69.82
2022-09-28T07:42:52.346Z,68.61
2022-09-28T07:45:20.784Z,65.00
2022-09-28T07:47:47.414Z,63.67
2022-09-28T07:50:13.975Z,61.41
2022-09-28T07:52:40.650Z,59.97
2022-09-28T07:55:07.859Z,53.64
2022-09-28T07:57:35.423Z,51.21
2022-09-28T08:00:02.502Z,44.65
2022-09-28T08:02:32.479Z,38.56
2022-09-28T08:04:59.783Z,35.44
2022-09-28T08:07:26.391Z,34.25
2022-09-28T08:09:52.948Z,35.33
2022-09-28T08:12:19.862Z,35.37
2022-09-28T08:14:46.868Z,36.52
2022-09-28T08:17:13.614Z,38.27
2022-09-28T08:19:58.960Z,38.49
2022-09-28T08:22:25.579Z,40.57
2022-09-28T08:24:52.156Z,41.42
2022-09-28T08:27:18.713Z,43.75
2022-09-28T08:29:45.360Z,45.69
2022-09-28T08:32:11.910Z,46.59
2022-09-28T08:34:39.724Z,48.47
2022-09-28T08:39:57.733Z,50.09
2022-09-28T08:42:35.466Z,50.38
2022-09-28T08:45:07.956Z,53.03
2022-09-28T08:48:25.355Z,51.92
2022-09-28T08:50:54.786Z,53.38
2022-09-28T08:53:33.165Z,54.91
2022-09-28T08:55:59.982Z,54.85
2022-09-28T08:58:28.404Z,54.31
2022-09-28T09:00:54.974Z,56.61
2022-09-28T09:03:26.933Z,56.90
2022-09-28T09:06:06.086Z,56.52
2022-09-28T09:08:39.710Z,57.53
2022-09-28T09:11:22.082Z,56.95
2022-09-28T09:14:03.856Z,58.63
2022-09-28T09:16:49.385Z,59.03
2022-09-28T09:19:36.287Z,58.78
2022-09-28T09:22:16.265Z,58.32
2022-09-28T09:24:50.399Z,59.63
2022-09-28T09:27:30.527Z,60.02
2022-09-28T09:30:09.623Z,59.93
2022-09-28T09:32:43.628Z,59.52
2022-09-28T09:35:40.683Z,58.44
2022-09-28T09:38:09.796Z,58.18
2022-09-28T09:40:43.308Z,57.47
2022-09-28T09:43:32.012Z,57.77
2022-09-28T09:46:10.802Z,59.35
2022-09-28T09:48:43.264Z,59.84
2022-09-28T09:51:32.964Z,60.17
2022-09-28T09:54:02.072Z,60.72
2022-09-28T09:56:40.893Z,60.42
2022-09-28T09:59:10.146Z,59.00
2022-09-28T10:01:38.982Z,58.60
2022-09-28T10:04:08.498Z,56.39
2022-09-28T10:06:35.553Z,60.13
2022-09-28T10:09:10.327Z,59.06
2022-09-28T10:11:39.696Z,58.99
2022-09-28T10:14:12.010Z,58.98
2022-09-28T10:16:38.672Z,60.41
2022-09-28T10:19:05.344Z,57.82
2022-09-28T10:21:32.574Z,59.16
2022-09-28T10:23:59.668Z,57.29
2022-09-28T10:26:47.052Z,57.67
2022-09-28T10:29:20.258Z,58.20
2022-09-28T10:31:50.791Z,56.74
2022-09-28T10:34:19.664Z,57.18
2022-09-28T10:37:07.085Z,57.50
2022-09-28T10:39:45.639Z,56.72
2022-09-28T10:42:13.247Z,56.08
2022-09-28T10:44:53.450Z,55.69
2022-09-28T10:47:20.914Z,55.10
2022-09-28T10:49:48.843Z,56.89
2022-09-28T10:52:35.284Z,54.52
2022-09-28T10:55:21.812Z,55.49
2022-09-28T10:57:48.504Z,55.55
2022-09-28T11:00:33.813Z,55.24
2022-09-28T11:03:00.941Z,54.21
2022-09-28T11:05:28.055Z,55.32
2022-09-28T11:07:55.949Z,54.71
2022-09-28T11:10:26.143Z,54.48
2022-09-28T11:12:52.939Z,52.66
2022-09-28T11:15:21.411Z,53.16
2022-09-28T11:17:48.143Z,52.83
2022-09-28T11:20:30.623Z,52.53
2022-09-28T11:23:22.716Z,52.68
2022-09-28T11:26:05.750Z,53.80
2022-09-28T11:28:37.796Z,56.52
2022-09-28T11:31:07.281Z,55.82
2022-09-28T11:33:39.021Z,55.60
2022-09-28T11:36:14.662Z,55.31
2022-09-28T11:39:09.241Z,54.59
2022-09-28T11:42:02.018Z,56.38
2022-09-28T11:44:36.750Z,54.11
2022-09-28T11:47:15.422Z,55.13
2022-09-28T11:49:46.477Z,55.09
2022-09-28T11:52:33.236Z,54.97
2022-09-28T11:55:03.290Z,55.18
2022-09-28T11:57:32.713Z,55.77
2022-09-28T12:00:01.942Z,56.06
2022-09-28T12:02:36.589Z,55.73
2022-09-28T12:05:15.910Z,55.50
2022-09-28T12:07:47.747Z,55.02
2022-09-28T12:10:19.884Z,55.62
2022-09-28T12:13:31.466Z,56.21
2022-09-28T12:18:57.384Z,57.67
2022-09-28T12:21:44.060Z,56.87
2022-09-28T12:24:29.389Z,57.38
2022-09-28T12:27:04.950Z,57.47
2022-09-28T12:29:41.088Z,57.82
2022-09-28T12:32:28.438Z,58.04
2022-09-28T12:34:55.751Z,59.10
2022-09-28T12:37:42.547Z,58.44
2022-09-28T12:40:18.162Z,58.49
2022-09-28T12:43:06.396Z,58.79
2022-09-28T12:46:06.748Z,59.40
2022-09-28T12:48:52.973Z,59.25
2022-09-28T12:51:48.722Z,58.06
2022-09-28T12:54:39.032Z,59.41
2022-09-28T12:57:24.392Z,60.11
2022-09-28T13:00:04.805Z,60.19
2022-09-28T13:02:57.732Z,61.02
2022-09-28T13:05:30.243Z,60.93
2022-09-28T13:08:09.136Z,60.55
2022-09-28T13:10:43.888Z,60.14
2022-09-28T13:13:38.287Z,60.27
2022-09-28T13:16:26.763Z,60.53
2022-09-28T13:19:16.945Z,61.92
2022-09-28T13:21:52.844Z,61.38
2022-09-28T13:24:32.791Z,60.90
2022-09-28T13:27:22.658Z,60.30
2022-09-28T13:29:50.399Z,61.37
2022-09-28T13:32:17.421Z,61.14
2022-09-28T13:34:44.068Z,60.58
2022-09-28T13:37:41.537Z,62.05
2022-09-28T13:40:08.463Z,62.25
2022-09-28T13:42:47.653Z,63.06
2022-09-28T13:45:20.189Z,62.79
2022-09-28T13:48:05.353Z,62.98
2022-09-28T13:50:54.284Z,63.75
2022-09-28T13:53:46.887Z,63.39
2022-09-28T13:56:39.842Z,63.84
2022-09-28T13:59:18.388Z,63.72
2022-09-28T14:02:15.415Z,64.26
2022-09-28T14:05:00.310Z,63.68
2022-09-28T14:07:36.533Z,64.96
2022-09-28T14:10:23.663Z,65.13
2022-09-28T14:12:51.567Z,64.80
2022-09-28T14:15:30.780Z,64.41
2022-09-28T14:18:15.669Z,64.83
2022-09-28T14:21:02.751Z,63.98
2022-09-28T14:23:34.594Z,64.11
2022-09-28T14:26:48.268Z,64.33
2022-09-28T14:29:34.563Z,64.56
2022-09-28T14:32:05.785Z,64.51
2022-09-28T14:34:42.691Z,64.22
2022-09-28T14:37:38.486Z,63.41
2022-09-28T14:40:39.050Z,63.62
2022-09-28T14:43:24.480Z,64.08
2022-09-28T14:46:15.297Z,64.04
2022-09-28T14:49:10.041Z,64.39
2022-09-28T14:51:43.399Z,64.58
2022-09-28T14:54:12.832Z,65.60
2022-09-28T14:56:40.425Z,65.26
2022-09-28T14:59:07.467Z,64.50
2022-09-28T15:01:34.266Z,63.79
2022-09-28T15:04:04.661Z,63.98
2022-09-28T15:06:50.703Z,64.33
2022-09-28T15:09:29.782Z,65.17
2022-09-28T15:12:20.919Z,64.63
2022-09-28T15:15:04.582Z,65.60
2022-09-28T15:17:39.707Z,65.47
2022-09-28T15:20:12.804Z,64.90
2022-09-28T15:22:44.973Z,64.92
2022-09-28T15:25:19.984Z,65.05
2022-09-28T15:27:56.446Z,66.59
2022-09-28T15:30:23.330Z,67.30
2022-09-28T15:32:50.545Z,68.23
2022-09-28T15:35:25.621Z,67.26
2022-09-28T15:37:52.700Z,68.80
2022-09-28T15:40:21.202Z,67.83
2022-09-28T15:42:47.908Z,68.39
2022-09-28T15:45:14.439Z,68.62
2022-09-28T15:47:44.904Z,69.08
2022-09-28T15:50:28.382Z,68.42
2022-09-28T15:53:00.717Z,68.44
2022-09-28T15:55:37.896Z,68.39
2022-09-28T15:58:24.822Z,68.02
2022-09-28T16:01:12.219Z,68.18
2022-09-28T16:03:38.886Z,68.09
2022-09-28T16:06:07.579Z,69.08
2022-09-28T16:08:39.744Z,68.55
2022-09-28T16:11:20.001Z,68.45
2022-09-28T16:14:07.332Z,68.80
2022-09-28T16:16:42.174Z,69.06
2022-09-28T16:19:37.373Z,69.16
2022-09-28T16:22:06.436Z,69.40
2022-09-28T16:24:37.104Z,69.75
2022-09-28T16:27:06.437Z,69.58
2022-09-28T16:29:39.966Z,69.79
2022-09-28T16:32:38.434Z,69.23
2022-09-28T16:35:13.721Z,69.10
2022-09-28T16:37:42.741Z,69.28
2022-09-28T16:40:10.120Z,69.46
2022-09-28T16:42:36.753Z,69.01
2022-09-28T16:45:05.314Z,69.49
2022-09-28T16:47:35.240Z,69.32
2022-09-28T16:50:03.947Z,69.88
2022-09-28T16:52:49.058Z,70.01
2022-09-28T16:55:38.947Z,69.69
2022-09-28T16:58:04.935Z,69.88
2022-09-28T17:00:31.948Z,69.47
2022-09-28T17:02:58.638Z,69.60
2022-09-28T17:05:25.567Z,69.81
2022-09-28T17:08:00.794Z,69.84
2022-09-28T17:10:56.207Z,69.62
2022-09-28T17:13:31.429Z,70.31
2022-09-28T17:15:58.411Z,70.14
2022-09-28T17:18:25.049Z,70.80
2022-09-28T17:20:52.169Z,70.81
2022-09-28T17:25:45.998Z,70.99
2022-09-28T17:28:23.686Z,71.07
2022-09-28T17:30:50.473Z,71.46
2022-09-28T17:33:17.320Z,71.32
2022-09-28T17:35:44.082Z,71.67
2022-09-28T17:38:14.976Z,72.07
2022-09-28T17:40:42.611Z,72.27
2022-09-28T17:43:09.478Z,72.42
2022-09-28T17:45:39.083Z,72.98
2022-09-28T17:48:06.701Z,73.33
2022-09-28T17:50:34.281Z,73.24
2022-09-28T17:53:03.872Z,73.63
2022-09-28T17:55:31.940Z,74.09
2022-09-28T17:58:02.024Z,74.06
2022-09-28T18:00:28.776Z,74.91
2022-09-28T18:02:56.150Z,74.80
2022-09-28T18:05:24.974Z,74.84
2022-09-28T18:07:52.092Z,75.20
2022-09-28T18:10:21.456Z,75.26
2022-09-28T18:12:49.349Z,75.64
2022-09-28T18:15:16.450Z,75.85
2022-09-28T18:17:43.017Z,75.77
2022-09-28T18:20:10.207Z,76.11
2022-09-28T18:22:36.885Z,76.00
2022-09-28T18:25:04.218Z,76.66
2022-09-28T18:27:31.143Z,76.38
2022-09-28T18:29:57.866Z,77.01
2022-09-28T18:32:24.546Z,76.74
2022-09-28T18:34:51.230Z,77.22
2022-09-28T18:37:17.859Z,77.17
2022-09-28T18:39:45.195Z,77.88
2022-09-28T18:42:12.504Z,77.33
2022-09-28T18:44:39.071Z,77.84
2022-09-28T18:47:05.619Z,77.51
2022-09-28T18:49:33.624Z,77.68
2022-09-28T18:52:01.327Z,77.44
2022-09-28T18:54:27.952Z,77.53
2022-09-28T18:56:56.418Z,77.94
2022-09-28T18:59:23.451Z,78.01
2022-09-28T19:01:50.310Z,78.12
2022-09-28T19:04:17.071Z,77.79
2022-09-28T19:06:44.889Z,78.51
2022-09-28T19:09:11.745Z,78.15
2022-09-28T19:11:38.457Z,78.38
2022-09-28T19:14:05.081Z,78.34
2022-09-28T19:16:33.790Z,78.38
2022-09-28T19:19:02.860Z,78.68
2022-09-28T19:21:30.131Z,78.82
2022-09-28T19:23:56.774Z,78.88
2022-09-28T19:26:24.920Z,78.92
2022-09-28T19:28:51.517Z,78.88
2022-09-28T19:31:18.870Z,78.84
2022-09-28T19:33:46.550Z,79.22
2022-09-28T19:36:17.232Z,78.97
2022-09-28T19:38:44.104Z,79.26
2022-09-28T19:41:49.515Z,79.22
2022-09-28T19:44:27.563Z,79.23
2022-09-28T19:47:07.085Z,79.59
2022-09-28T19:49:36.988Z,79.50
2022-09-28T19:52:13.377Z,79.83
2022-09-28T19:55:00.343Z,79.80
2022-09-28T19:57:28.635Z,79.87
2022-09-28T20:00:00.808Z,80.11
2022-09-28T20:02:28.674Z,80.24
2022-09-28T20:04:55.507Z,80.06
2022-09-28T20:07:22.130Z,79.75
2022-09-28T20:09:48.799Z,80.03
2022-09-28T20:12:15.398Z,80.23
2022-09-28T20:14:41.986Z,79.82
2022-09-28T20:17:09.341Z,80.35
2022-09-28T20:19:36.124Z,80.03
2022-09-28T20:22:03.132Z,80.41
2022-09-28T20:24:31.366Z,79.80
2022-09-28T20:26:58.141Z,79.70
2022-09-28T20:29:24.939Z,79.22
2022-09-28T20:31:51.999Z,78.63
2022-09-28T20:34:18.670Z,78.48
2022-09-28T20:36:45.252Z,78.61
2022-09-28T20:39:12.030Z,78.24
2022-09-28T20:41:38.727Z,78.40
2022-09-28T20:44:06.339Z,77.81
2022-09-28T20:46:35.058Z,77.02
2022-09-28T20:49:01.935Z,77.12
2022-09-28T20:51:28.723Z,77.01
2022-09-28T20:53:56.593Z,76.53
2022-09-28T20:56:38.765Z,72.57
2022-09-28T20:59:07.451Z,72.68
2022-09-28T21:01:34.315Z,71.81
2022-09-28T21:04:01.991Z,72.99
2022-09-28T21:06:33.577Z,72.22
2022-09-28T21:09:00.251Z,72.28
2022-09-28T21:11:28.129Z,72.06
2022-09-28T21:13:55.814Z,71.64
2022-09-28T21:16:22.539Z,71.56
2022-09-28T21:18:49.158Z,71.33
2022-09-28T21:21:17.115Z,71.91
2022-09-28T21:23:46.525Z,71.67
2022-09-28T21:26:15.788Z,72.36
2022-09-28T21:28:42.451Z,72.79
2022-09-28T21:31:10.404Z,72.59
2022-09-28T21:33:37.286Z,73.06
2022-09-28T21:36:05.137Z,73.29
2022-09-28T21:38:31.750Z,72.27
2022-09-28T21:40:59.257Z,72.31
2022-09-28T21:43:27.400Z,72.67
2022-09-28T21:45:54.714Z,72.77
2022-09-28T21:48:21.823Z,72.91
2022-09-28T21:51:01.833Z,72.91
2022-09-28T21:53:29.951Z,72.32
2022-09-28T21:55:57.002Z,72.31
2022-09-28T21:58:24.941Z,71.63
2022-09-28T22:00:56.920Z,71.76
2022-09-28T22:03:25.807Z,71.15
2022-09-28T22:05:52.478Z,71.22
2022-09-28T22:08:19.718Z,70.92
2022-09-28T22:10:46.702Z,70.57
2022-09-28T22:13:13.272Z,70.61
2022-09-28T22:15:39.872Z,70.62
2022-09-28T22:18:06.468Z,70.62
2022-09-28T22:20:33.153Z,70.26
2022-09-28T22:22:59.776Z,69.29
2022-09-28T22:25:26.408Z,68.94
2022-09-28T22:27:53.205Z,68.83
2022-09-28T22:30:19.782Z,68.73
2022-09-28T22:32:46.380Z,69.18
2022-09-28T22:35:12.960Z,69.81
2022-09-28T22:37:39.525Z,69.03
2022-09-28T22:40:06.691Z,69.75
2022-09-28T22:42:33.232Z,70.27
2022-09-28T22:44:59.851Z,71.09
2022-09-28T22:47:26.469Z,71.27
2022-09-28T22:49:53.096Z,70.61
2022-09-28T22:52:19.668Z,69.58
2022-09-28T22:54:46.253Z,69.08
2022-09-28T22:57:13.103Z,69.77
2022-09-28T22:59:39.639Z,70.33
2022-09-28T23:02:06.450Z,70.62
2022-09-28T23:04:33.186Z,70.77
2022-09-28T23:06:59.920Z,71.01
2022-09-28T23:09:26.494Z,71.53
2022-09-28T23:11:53.059Z,71.35
2022-09-28T23:14:19.654Z,71.16
2022-09-28T23:16:46.226Z,71.47
2022-09-28T23:19:12.786Z,71.68
2022-09-28T23:21:39.649Z,71.69
2022-09-28T23:24:06.266Z,71.59
2022-09-28T23:26:33.273Z,71.79
2022-09-28T23:29:00.091Z,71.72
2022-09-28T23:31:29.377Z,72.35
2022-09-28T23:34:00.395Z,72.08
2022-09-28T23:36:27.123Z,72.68
2022-09-28T23:38:53.714Z,72.54
2022-09-28T23:41:20.281Z,72.76
2022-09-28T23:43:46.867Z,72.77
2022-09-28T23:46:16.212Z,73.63
2022-09-28T23:48:46.287Z,73.68
2022-09-28T23:51:12.868Z,73.75
2022-09-28T23:53:39.730Z,73.82
2022-09-28T23:56:06.385Z,74.14
2022-09-28T23:58:32.976Z,74.33
